Decoded Metar for VGEG (CHITTAGONG in BANGLADESH) (IATA:CGP) | Meteo·Mobile Aviation Weather
aviador You're here:

VGEG Decoded Metar

CHITTAGONG in BANGLADESH
Report Time2019-01-17 01:00:00
UTC Time2019-01-17 01:21:01
Flight Rules lifr LIFR
WindCalm
Visibility0050 m
Phenomena:Fog
Clouds:Broken 005 Hf
Ceiling500 ft
Temp14°C (ISA -1)
Dew Point14°C (100% RH)
QNH1014 hPa
Density Alt85 ft
Elevation20 ft
Report Wrong Elevation
Raw Report
METAR VGEG 170100Z 00000KT 0050 FG BKN005 14/14 Q1014 NOSIG=

Extra information for VGEG:More info

Metar Taf Metar & Taf Last 4 Metars F.Rules Stats Wind Profile Meteogram Temp Stats Airport Information Weather charts Add Link Nearby VenuesMetar ALERT Operation Metar Decoded Social comments